Time;durP1;ratioP1;P1;durP2;ratioP2;P2;SDS_P1;SDS_P2;PMS_P1;PMS_P2;Temp;Humidity;BMP_temperature;BMP_pressure;BME280_temperature;BME280_humidity;BME280_pressure;Samples;Min_cycle;Max_cycle;Signal;HPM_P1;HPM_P2
2023/05/06 00:00:27;;;;;;;10.90;7.33;;;9.60;99.80;;;;;;12855214;23;20217;-82
2023/05/06 00:05:30;;;;;;;8.13;6.43;;;9.70;99.90;;;;;;12855053;23;20206;-83
2023/05/06 00:10:33;;;;;;;10.90;5.13;;;9.70;99.90;;;;;;12854197;23;20277;-83
2023/05/06 00:15:36;;;;;;;8.17;5.40;;;9.80;99.90;;;;;;12854936;23;20175;-83
2023/05/06 00:20:39;;;;;;;7.37;5.70;;;9.90;99.90;;;;;;12854537;23;20171;-83
2023/05/06 00:25:41;;;;;;;3.40;3.10;;;10.00;99.70;;;;;;12853929;23;20195;-83
2023/05/06 00:30:44;;;;;;;7.07;4.27;;;10.10;99.90;;;;;;12828446;23;20484;-83
2023/05/06 00:35:47;;;;;;;5.13;4.10;;;10.10;99.00;;;;;;12854407;23;20171;-83
2023/05/06 00:40:50;;;;;;;4.67;4.17;;;10.20;97.60;;;;;;12826991;23;20213;-82
2023/05/06 00:45:53;;;;;;;5.73;3.30;;;10.50;96.50;;;;;;12851159;23;20549;-83
2023/05/06 00:50:56;;;;;;;5.47;3.73;;;10.60;95.50;;;;;;12854317;23;20164;-83
2023/05/06 00:55:59;;;;;;;7.73;3.50;;;10.90;95.40;;;;;;12826850;23;20186;-83
2023/05/06 01:01:02;;;;;;;4.97;3.27;;;11.20;95.50;;;;;;12854252;23;20171;-83
2023/05/06 01:06:14;;;;;;;5.87;4.03;;;11.50;95.30;;;;;;12852453;23;20541;-82
2023/05/06 01:11:44;;;;;;;5.80;3.53;;;11.60;92.90;;;;;;12856037;23;20617;-82
2023/05/06 01:16:51;;;;;;;6.50;4.13;;;11.90;93.70;;;;;;12815064;23;20179;-83
2023/05/06 01:21:55;;;;;;;3.03;2.23;;;11.70;92.60;;;;;;12852599;23;20598;-82
2023/05/06 01:26:58;;;;;;;3.27;2.57;;;12.10;92.60;;;;;;12825111;23;20258;-83
2023/05/06 01:32:20;;;;;;;4.73;3.10;;;12.20;92.90;;;;;;12853250;23;20267;-82
2023/05/06 01:37:46;;;;;;;5.33;3.77;;;12.40;90.80;;;;;;12871270;23;20843;-83
2023/05/06 01:42:49;;;;;;;4.90;3.53;;;12.20;90.30;;;;;;12870814;23;20167;-82
2023/05/06 01:47:52;;;;;;;5.33;3.00;;;12.20;92.30;;;;;;12825708;23;20259;-82
2023/05/06 01:53:00;;;;;;;5.53;3.00;;;12.10;91.10;;;;;;12824965;23;20210;-83
2023/05/06 01:58:02;;;;;;;4.37;3.17;;;12.10;90.60;;;;;;12826681;23;20487;-83
2023/05/06 02:03:05;;;;;;;3.30;2.60;;;11.90;91.00;;;;;;12826670;23;20655;-83
2023/05/06 02:08:08;;;;;;;3.73;2.90;;;12.00;94.10;;;;;;12825394;23;20681;-83
2023/05/06 02:13:11;;;;;;;7.50;3.37;;;12.20;91.90;;;;;;12825502;23;20557;-83
2023/05/06 02:18:13;;;;;;;9.03;2.37;;;12.20;90.30;;;;;;12825767;23;20233;-83
2023/05/06 02:23:16;;;;;;;3.93;3.50;;;12.30;91.20;;;;;;12825834;23;20234;-83
2023/05/06 02:28:20;;;;;;;8.10;2.77;;;12.30;88.90;;;;;;12852703;23;20233;-83
2023/05/06 02:33:24;;;;;;;5.07;3.03;;;12.20;90.40;;;;;;12852379;23;20167;-83
2023/05/06 02:38:26;;;;;;;8.47;4.23;;;11.90;89.70;;;;;;12851893;23;20175;-83
2023/05/06 02:43:29;;;;;;;8.43;5.40;;;11.90;85.60;;;;;;12856165;23;20672;-83
2023/05/06 02:48:33;;;;;;;8.97;2.63;;;11.60;89.90;;;;;;12854443;23;20195;-82
2023/05/06 02:53:35;;;;;;;6.57;3.10;;;11.50;91.10;;;;;;12856119;23;20225;-83
2023/05/06 02:58:38;;;;;;;4.50;3.50;;;11.80;90.80;;;;;;12856300;23;20171;-83
2023/05/06 03:03:40;;;;;;;5.43;4.33;;;11.90;91.10;;;;;;12855910;23;20508;-82
2023/05/06 03:08:43;;;;;;;5.40;3.37;;;11.70;88.00;;;;;;12852692;23;20211;-83
2023/05/06 03:13:46;;;;;;;4.87;4.10;;;11.70;91.00;;;;;;12829660;23;20797;-83
2023/05/06 03:18:49;;;;;;;2.97;2.23;;;11.70;90.70;;;;;;12829647;23;20234;-83
2023/05/06 03:23:52;;;;;;;4.60;3.53;;;11.70;92.10;;;;;;12852426;23;20625;-82
2023/05/06 03:28:58;;;;;;;3.00;2.40;;;11.60;90.20;;;;;;12827167;23;20253;-82
2023/05/06 03:34:01;;;;;;;7.57;4.03;;;11.70;95.10;;;;;;12827817;23;20175;-83
2023/05/06 03:39:04;;;;;;;3.40;3.10;;;11.70;90.00;;;;;;12827325;23;20524;-83
2023/05/06 03:44:09;;;;;;;5.77;2.53;;;11.80;91.90;;;;;;12852488;23;20183;-83
2023/05/06 03:49:12;;;;;;;4.13;3.70;;;11.60;93.40;;;;;;12854623;23;20191;-83
2023/05/06 03:54:16;;;;;;;2.97;2.67;;;11.90;92.70;;;;;;12827231;23;20183;-82
2023/05/06 03:59:19;;;;;;;8.43;3.63;;;12.10;92.50;;;;;;12826958;23;20179;-83
2023/05/06 04:04:22;;;;;;;9.20;4.37;;;12.10;90.20;;;;;;12826520;23;20184;-83
2023/05/06 04:09:25;;;;;;;2.97;2.67;;;12.00;92.30;;;;;;12802576;23;20238;-82
2023/05/06 04:14:30;;;;;;;5.00;3.83;;;12.30;93.50;;;;;;12826980;23;20175;-83
2023/05/06 04:19:33;;;;;;;3.27;2.77;;;12.00;91.10;;;;;;12827266;23;20180;-83
2023/05/06 04:24:36;;;;;;;5.33;2.90;;;11.90;92.00;;;;;;12853857;23;20168;-82
2023/05/06 04:29:39;;;;;;;8.77;3.67;;;12.20;93.40;;;;;;12851320;23;20198;-82
2023/05/06 04:34:42;;;;;;;4.63;3.53;;;12.30;90.10;;;;;;12825913;23;20175;-82
2023/05/06 04:39:49;;;;;;;4.60;3.30;;;12.10;90.20;;;;;;12850872;23;20257;-82
2023/05/06 04:44:53;;;;;;;7.10;4.07;;;12.20;91.50;;;;;;12851216;23;20187;-82
2023/05/06 04:50:02;;;;;;;4.70;2.80;;;12.20;88.00;;;;;;12801402;23;20607;-82
2023/05/06 04:55:05;;;;;;;5.80;4.63;;;12.00;91.70;;;;;;12825357;23;20175;-82
2023/05/06 05:00:11;;;;;;;6.20;2.87;;;12.20;90.50;;;;;;12850660;23;20241;-82
2023/05/06 05:05:14;;;;;;;5.07;3.80;;;12.30;92.90;;;;;;12852969;23;20167;-82
2023/05/06 05:10:19;;;;;;;5.03;3.90;;;12.20;91.00;;;;;;12853153;23;20253;-83
2023/05/06 05:15:23;;;;;;;4.33;3.77;;;12.40;89.00;;;;;;12825566;23;20237;-83
2023/05/06 05:20:26;;;;;;;4.00;3.23;;;12.20;91.00;;;;;;12824666;23;20411;-83
2023/05/06 05:25:29;;;;;;;9.90;3.80;;;12.20;90.50;;;;;;12824677;23;20183;-83
2023/05/06 05:30:31;;;;;;;4.77;4.07;;;12.30;89.30;;;;;;12848789;23;20203;-82
2023/05/06 05:35:40;;;;;;;3.57;2.40;;;12.30;86.40;;;;;;12824969;23;20176;-82
2023/05/06 05:40:47;;;;;;;4.87;3.50;;;12.30;93.10;;;;;;12823864;23;20188;-82
2023/05/06 05:45:50;;;;;;;15.10;9.27;;;12.30;90.80;;;;;;12824096;23;20572;-82
2023/05/06 05:50:53;;;;;;;5.37;3.47;;;12.10;89.70;;;;;;12824419;23;20205;-82
2023/05/06 05:55:56;;;;;;;8.47;4.53;;;12.00;90.70;;;;;;12825243;23;20253;-83
2023/05/06 06:01:00;;;;;;;4.17;2.73;;;11.90;89.50;;;;;;12823959;23;20176;-82
2023/05/06 06:06:03;;;;;;;9.53;3.97;;;11.80;92.30;;;;;;12799452;23;20229;-82
2023/05/06 06:11:06;;;;;;;5.27;3.87;;;11.90;92.80;;;;;;12851343;23;20265;-82
2023/05/06 06:16:14;;;;;;;8.77;3.87;;;11.90;93.20;;;;;;12826583;23;20175;-82
2023/05/06 06:21:16;;;;;;;6.30;3.50;;;11.80;91.10;;;;;;12857309;23;20227;-82
2023/05/06 06:26:20;;;;;;;4.57;3.30;;;11.80;91.80;;;;;;12827478;23;20259;-81
2023/05/06 06:31:23;;;;;;;4.87;3.10;;;11.70;91.00;;;;;;12827466;23;20171;-82
2023/05/06 06:36:25;;;;;;;4.37;3.90;;;11.70;93.30;;;;;;12829231;23;20179;-83
2023/05/06 06:41:28;;;;;;;4.07;2.97;;;11.90;91.00;;;;;;12856755;23;20704;-82
2023/05/06 06:46:30;;;;;;;4.57;3.17;;;11.90;92.60;;;;;;12856156;23;20183;-82
2023/05/06 06:51:33;;;;;;;3.03;2.73;;;12.10;93.20;;;;;;12829077;23;20179;-82
2023/05/06 06:56:35;;;;;;;5.40;3.70;;;12.30;91.20;;;;;;12859575;23;20557;-82
2023/05/06 07:01:39;;;;;;;5.30;2.77;;;12.20;89.70;;;;;;12855162;23;20560;-82
2023/05/06 07:06:42;;;;;;;8.47;3.97;;;12.10;91.40;;;;;;12855543;23;20302;-82
2023/05/06 07:11:44;;;;;;;3.40;3.10;;;12.20;90.80;;;;;;12855781;23;20529;-83
2023/05/06 07:16:47;;;;;;;4.30;3.13;;;12.20;91.00;;;;;;12856994;23;20279;-83
2023/05/06 07:21:53;;;;;;;4.33;3.07;;;12.20;90.00;;;;;;12873591;23;20662;-83
2023/05/06 07:26:56;;;;;;;4.37;3.27;;;11.90;90.70;;;;;;12855285;23;20183;-83
2023/05/06 07:31:59;;;;;;;3.57;2.67;;;11.90;90.40;;;;;;12856137;23;20234;-82
2023/05/06 07:37:02;;;;;;;3.43;2.83;;;11.80;92.30;;;;;;12854798;23;20245;-83
2023/05/06 07:42:06;;;;;;;3.40;3.10;;;11.50;91.90;;;;;;12854788;23;20187;-83
2023/05/06 07:47:08;;;;;;;9.63;3.27;;;11.50;92.90;;;;;;12826311;23;20203;-83
2023/05/06 07:52:11;;;;;;;2.20;2.03;;;11.50;93.60;;;;;;12851832;23;20214;-83
2023/05/06 07:57:15;;;;;;;3.27;2.47;;;11.40;95.80;;;;;;12855203;23;20174;-83
2023/05/06 08:02:17;;;;;;;3.27;2.97;;;11.60;95.60;;;;;;12873100;23;20168;-83
2023/05/06 08:07:20;;;;;;;7.73;3.40;;;11.70;95.60;;;;;;12853912;23;20206;-83
2023/05/06 08:12:22;;;;;;;4.60;3.40;;;11.40;95.20;;;;;;12854656;23;20189;-83
2023/05/06 08:17:25;;;;;;;5.07;3.17;;;11.20;96.70;;;;;;12828109;23;20237;-81
2023/05/06 08:22:28;;;;;;;5.53;2.67;;;11.30;98.00;;;;;;12827824;23;20179;-81
2023/05/06 08:27:30;;;;;;;6.30;4.20;;;11.50;98.00;;;;;;12851018;23;20290;-81
2023/05/06 08:32:33;;;;;;;7.53;3.40;;;11.50;97.10;;;;;;12845688;23;20218;-81
2023/05/06 08:37:35;;;;;;;5.60;2.47;;;11.50;98.80;;;;;;12855433;23;20220;-81
2023/05/06 08:42:38;;;;;;;4.53;2.17;;;11.50;98.70;;;;;;12828498;23;20183;-81
2023/05/06 08:47:41;;;;;;;3.90;2.97;;;11.50;98.70;;;;;;12854506;23;20187;-81
2023/05/06 08:52:44;;;;;;;6.20;5.20;;;11.40;98.10;;;;;;12829029;23;20499;-81
2023/05/06 08:57:48;;;;;;;5.53;3.27;;;11.40;97.80;;;;;;12854536;23;20273;-81
2023/05/06 09:02:50;;;;;;;3.53;2.70;;;11.50;98.90;;;;;;12854177;23;20171;-80
2023/05/06 09:07:53;;;;;;;5.77;3.23;;;11.70;98.40;;;;;;12853200;23;20226;-81
2023/05/06 09:12:56;;;;;;;10.00;4.03;;;11.90;97.40;;;;;;12872839;23;20163;-82
2023/05/06 09:17:59;;;;;;;2.20;2.00;;;11.80;97.00;;;;;;12854044;23;20171;-82
2023/05/06 09:23:02;;;;;;;3.37;2.97;;;12.00;97.50;;;;;;12826726;23;20187;-83
2023/05/06 09:28:10;;;;;;;3.20;2.37;;;12.20;96.90;;;;;;12870977;23;20191;-82
2023/05/06 09:33:12;;;;;;;5.03;3.50;;;12.30;96.30;;;;;;12801713;23;20175;-84
2023/05/06 09:38:15;;;;;;;4.83;4.33;;;11.90;96.80;;;;;;12852168;23;20527;-82
2023/05/06 09:43:18;;;;;;;4.23;2.73;;;11.40;98.20;;;;;;12851502;23;20182;-82
2023/05/06 09:48:21;;;;;;;10.97;5.33;;;11.30;99.90;;;;;;12852335;23;20253;-83
2023/05/06 09:53:26;;;;;;;4.83;3.87;;;10.90;99.90;;;;;;12851353;23;20179;-81
2023/05/06 09:58:30;;;;;;;9.90;4.70;;;10.80;99.90;;;;;;12851295;23;20569;-83
2023/05/06 10:03:34;;;;;;;6.73;4.60;;;10.80;99.90;;;;;;12852235;23;20164;-82
2023/05/06 10:08:39;;;;;;;9.47;4.87;;;10.70;99.90;;;;;;12851462;23;20265;-82
2023/05/06 10:13:44;;;;;;;7.47;3.77;;;10.60;99.90;;;;;;12852642;23;20167;-83
2023/05/06 10:18:50;;;;;;;8.37;4.53;;;11.00;99.90;;;;;;12851941;23;20183;-83
2023/05/06 10:24:06;;;;;;;4.60;3.40;;;10.90;99.90;;;;;;12852833;23;20247;-84
2023/05/06 10:29:10;;;;;;;8.10;4.63;;;11.20;99.90;;;;;;12870329;23;20558;-82
2023/05/06 10:34:15;;;;;;;6.37;4.47;;;11.50;99.90;;;;;;12850761;23;20206;-83
2023/05/06 10:39:18;;;;;;;8.10;5.30;;;11.70;99.90;;;;;;12851793;23;20771;-83
2023/05/06 10:44:58;;;;;;;6.00;4.03;;;11.30;99.90;;;;;;12853233;23;20167;-84
2023/05/06 10:50:21;;;;;;;7.40;4.50;;;11.20;99.90;;;;;;12869586;23;20218;-85
2023/05/06 10:55:26;;;;;;;9.17;5.30;;;11.30;99.90;;;;;;12852201;23;20550;-83
2023/05/06 11:00:33;;;;;;;6.93;3.90;;;11.30;99.90;;;;;;12851126;23;20167;-82
2023/05/06 11:05:50;;;;;;;6.87;5.93;;;10.80;99.90;;;;;;12854379;23;20233;-82
2023/05/06 11:10:54;;;;;;;12.73;7.60;;;10.60;99.90;;;;;;12854502;23;20249;-83
2023/05/06 11:15:57;;;;;;;7.80;4.53;;;10.50;99.90;;;;;;12854300;23;20179;-83
2023/05/06 11:20:59;;;;;;;6.63;5.07;;;10.40;99.90;;;;;;12856022;23;20168;-82
2023/05/06 11:26:06;;;;;;;6.57;5.87;;;10.20;99.90;;;;;;12852628;23;20233;-84
2023/05/06 11:31:11;;;;;;;8.77;6.43;;;10.20;99.90;;;;;;12846467;23;20191;-84
2023/05/06 11:36:16;;;;;;;8.10;5.93;;;10.00;99.90;;;;;;12827845;23;20511;-83
2023/05/06 11:41:19;;;;;;;11.13;6.30;;;10.20;99.90;;;;;;12827577;23;20187;-83
2023/05/06 11:46:22;;;;;;;4.83;4.37;;;10.10;99.90;;;;;;12854281;23;20183;-83
2023/05/06 11:51:26;;;;;;;8.50;6.40;;;10.20;99.90;;;;;;12854376;23;20187;-83
2023/05/06 11:56:28;;;;;;;8.77;7.07;;;10.40;99.90;;;;;;12853222;23;20245;-83
2023/05/06 12:01:32;;;;;;;14.37;8.33;;;10.10;99.90;;;;;;12803289;23;20183;-83
2023/05/06 12:06:35;;;;;;;16.60;5.73;;;9.30;99.90;;;;;;12854701;23;20167;-82
2023/05/06 12:23:15;;;;;;;10.67;8.17;;;8.80;99.90;;;;;;12736095;23;20287;-84
2023/05/06 12:28:19;;;;;;;7.30;4.67;;;8.60;99.90;;;;;;12729762;23;20187;-84
2023/05/06 12:33:22;;;;;;;15.23;6.83;;;8.50;99.90;;;;;;12728472;23;20664;-84
2023/05/06 12:38:25;;;;;;;13.17;8.57;;;9.00;99.90;;;;;;12792036;23;20552;-85
2023/05/06 12:43:29;;;;;;;10.37;6.33;;;9.40;99.90;;;;;;12765132;23;20906;-84
2023/05/06 12:48:32;;;;;;;11.07;8.93;;;9.60;99.90;;;;;;12789057;23;20191;-84
2023/05/06 12:53:35;;;;;;;17.17;7.00;;;9.80;99.90;;;;;;12788965;23;20171;-84
2023/05/06 12:58:38;;;;;;;12.47;8.57;;;10.10;99.90;;;;;;12806537;23;20620;-84
2023/05/06 13:03:41;;;;;;;14.20;8.87;;;10.70;99.90;;;;;;12790044;23;20713;-84
2023/05/06 13:08:43;;;;;;;14.53;10.17;;;10.60;99.90;;;;;;12790925;23;20193;-84
2023/05/06 13:13:46;;;;;;;14.40;9.63;;;10.60;99.90;;;;;;12790901;23;20195;-84
2023/05/06 13:18:48;;;;;;;14.50;10.77;;;10.60;99.90;;;;;;12791146;23;20171;-84
2023/05/06 13:23:51;;;;;;;11.60;8.20;;;10.50;99.90;;;;;;12790470;23;20572;-84
2023/05/06 13:28:54;;;;;;;15.50;10.30;;;10.50;99.90;;;;;;12807955;23;20223;-83
2023/05/06 13:33:56;;;;;;;10.83;7.30;;;10.40;99.90;;;;;;12791529;23;20550;-84
2023/05/06 13:38:59;;;;;;;8.83;5.77;;;10.30;99.90;;;;;;12789426;23;20188;-83
2023/05/06 13:44:02;;;;;;;10.20;6.97;;;10.70;99.90;;;;;;12782779;23;20172;-84
2023/05/06 13:49:04;;;;;;;23.70;13.60;;;11.00;99.90;;;;;;12790534;23;20518;-83
2023/05/06 13:54:07;;;;;;;11.93;7.23;;;11.00;99.90;;;;;;12788518;23;20258;-84
2023/05/06 13:59:12;;;;;;;16.40;10.07;;;11.10;99.90;;;;;;12789715;23;20168;-83
2023/05/06 14:04:15;;;;;;;26.43;13.70;;;11.20;99.90;;;;;;12789116;23;20562;-84
2023/05/06 14:09:17;;;;;;;6.67;4.57;;;11.00;99.90;;;;;;12806552;23;20215;-84
2023/05/06 14:14:20;;;;;;;10.73;7.40;;;11.10;99.90;;;;;;12789220;23;20167;-84
2023/05/06 14:19:23;;;;;;;8.10;5.80;;;11.30;99.90;;;;;;12789680;23;20635;-84
2023/05/06 14:24:25;;;;;;;8.87;5.50;;;11.40;99.90;;;;;;12808679;23;20174;-84
2023/05/06 14:29:28;;;;;;;13.67;7.60;;;11.60;99.90;;;;;;12791475;23;20193;-85
2023/05/06 14:34:33;;;;;;;12.03;7.23;;;11.50;99.90;;;;;;12791421;23;20562;-85
2023/05/06 14:39:36;;;;;;;28.53;15.03;;;11.30;99.90;;;;;;12794803;23;20175;-85
2023/05/06 14:44:38;;;;;;;15.30;9.63;;;11.40;99.90;;;;;;12790715;23;20662;-84
2023/05/06 14:49:41;;;;;;;12.27;8.67;;;11.60;99.90;;;;;;12794311;23;20545;-84
2023/05/06 14:54:43;;;;;;;10.13;7.87;;;11.80;99.90;;;;;;12766800;23;20179;-84
2023/05/06 14:59:46;;;;;;;23.03;12.87;;;12.00;99.90;;;;;;12791726;23;20180;-84
2023/05/06 15:04:48;;;;;;;13.33;7.13;;;12.00;99.90;;;;;;12791966;23;20176;-84
2023/05/06 15:09:51;;;;;;;14.17;8.80;;;11.70;99.90;;;;;;12790932;23;20574;-84
2023/05/06 15:14:54;;;;;;;30.23;11.83;;;11.60;99.90;;;;;;12790495;23;20250;-84
2023/05/06 15:19:56;;;;;;;15.27;8.70;;;11.70;99.90;;;;;;12788538;23;20191;-84
2023/05/06 15:24:59;;;;;;;11.07;6.43;;;11.80;99.90;;;;;;12790976;23;20203;-84
2023/05/06 15:30:03;;;;;;;8.80;6.00;;;11.60;99.90;;;;;;12789039;23;20242;-84
2023/05/06 15:35:06;;;;;;;9.23;5.90;;;11.70;99.90;;;;;;12790416;23;20174;-84
2023/05/06 15:40:12;;;;;;;9.77;5.80;;;12.00;99.90;;;;;;12790475;23;20619;-84
2023/05/06 15:45:15;;;;;;;11.73;6.63;;;12.10;99.90;;;;;;12791265;23;20179;-84
2023/05/06 15:50:18;;;;;;;7.43;5.50;;;12.40;99.90;;;;;;12791409;23;20821;-84
2023/05/06 15:55:33;;;;;;;10.47;6.20;;;12.10;99.90;;;;;;12774550;23;20223;-84
2023/05/06 16:00:48;;;;;;;9.83;6.33;;;12.30;99.90;;;;;;12765915;23;20568;-85
2023/05/06 16:05:56;;;;;;;10.47;6.83;;;12.10;99.90;;;;;;12762945;23;20188;-84
2023/05/06 16:10:58;;;;;;;11.10;7.23;;;12.30;99.90;;;;;;12790665;23;20733;-84
2023/05/06 16:16:01;;;;;;;8.67;6.03;;;11.80;99.90;;;;;;12789478;23;20177;-85
2023/05/06 16:21:04;;;;;;;10.17;5.93;;;11.50;99.90;;;;;;12763743;23;20542;-85
2023/05/06 16:26:06;;;;;;;7.90;5.67;;;11.40;99.90;;;;;;12789992;23;20179;-84
2023/05/06 16:31:09;;;;;;;13.73;7.80;;;11.40;99.90;;;;;;12790659;23;20305;-86
2023/05/06 16:36:12;;;;;;;9.17;6.10;;;11.40;99.90;;;;;;12763194;23;20179;-86
2023/05/06 16:41:15;;;;;;;15.93;8.17;;;11.60;99.90;;;;;;12790333;23;20170;-86
2023/05/06 16:46:18;;;;;;;35.03;11.17;;;11.60;99.90;;;;;;12762271;23;20215;-86
2023/05/06 16:51:22;;;;;;;26.33;9.93;;;11.50;99.90;;;;;;12789503;23;20195;-85
2023/05/06 16:56:24;;;;;;;14.90;8.17;;;11.50;99.90;;;;;;12788160;23;20234;-85
2023/05/06 17:01:41;;;;;;;9.40;6.37;;;11.70;99.90;;;;;;12806029;23;20914;-85
2023/05/06 17:06:44;;;;;;;11.37;7.30;;;12.00;99.90;;;;;;12761965;23;20503;-86
2023/05/06 17:11:46;;;;;;;11.90;7.60;;;12.00;99.90;;;;;;12788053;23;20246;-86
2023/05/06 17:16:50;;;;;;;9.30;6.93;;;11.70;99.90;;;;;;12789090;23;20167;-86
2023/05/06 17:21:53;;;;;;;10.37;7.53;;;11.40;99.90;;;;;;12789100;23;20272;-86
2023/05/06 17:26:55;;;;;;;10.17;7.20;;;11.40;99.90;;;;;;12789398;23;20171;-85
2023/05/06 17:31:58;;;;;;;9.53;6.53;;;11.50;99.90;;;;;;12790005;23;20191;-85
2023/05/06 17:37:03;;;;;;;32.90;20.10;;;11.60;99.90;;;;;;12763191;23;20208;-85
2023/05/06 17:42:07;;;;;;;28.47;18.60;;;11.60;99.90;;;;;;12785990;23;20248;-85
2023/05/06 17:47:09;;;;;;;47.10;28.17;;;11.20;99.90;;;;;;12758745;23;20714;-86
2023/05/06 17:52:12;;;;;;;17.30;11.07;;;11.10;99.90;;;;;;12783996;23;20195;-85
2023/05/06 17:57:14;;;;;;;32.07;22.60;;;11.30;99.90;;;;;;12758894;23;20247;-85
2023/05/06 18:02:17;;;;;;;11.63;9.33;;;11.00;99.90;;;;;;12784121;23;20176;-84
2023/05/06 18:07:20;;;;;;;12.17;8.10;;;10.70;99.90;;;;;;12785506;23;20184;-84
2023/05/06 18:12:22;;;;;;;11.37;9.13;;;10.40;99.90;;;;;;12760893;23;20199;-85
2023/05/06 18:17:25;;;;;;;10.70;8.37;;;9.90;99.90;;;;;;12787169;23;20545;-85
2023/05/06 18:22:27;;;;;;;9.83;8.77;;;9.00;99.90;;;;;;12787244;23;20760;-84
2023/05/06 18:27:31;;;;;;;15.13;9.03;;;8.60;99.90;;;;;;12762210;23;20176;-84
2023/05/06 18:32:34;;;;;;;10.00;7.30;;;8.50;99.90;;;;;;12763147;23;20744;-83
2023/05/06 18:37:37;;;;;;;12.70;8.80;;;8.30;99.90;;;;;;12796611;23;20195;-85
2023/05/06 18:42:40;;;;;;;12.33;8.80;;;8.30;99.90;;;;;;12763702;23;20185;-83
2023/05/06 18:47:42;;;;;;;10.07;8.00;;;8.10;99.90;;;;;;12764601;23;20977;-84
2023/05/06 18:52:45;;;;;;;8.33;6.43;;;8.00;99.90;;;;;;12763256;23;20190;-83
2023/05/06 18:57:47;;;;;;;9.10;7.07;;;8.10;99.90;;;;;;12786227;23;20218;-83
2023/05/06 19:02:50;;;;;;;10.77;7.67;;;8.50;99.90;;;;;;12787679;23;20167;-83
2023/05/06 19:07:52;;;;;;;11.57;8.10;;;8.50;99.90;;;;;;12760777;23;20183;-83
2023/05/06 19:12:55;;;;;;;11.50;7.40;;;8.80;99.90;;;;;;12786699;23;20218;-84
2023/05/06 19:17:57;;;;;;;8.10;6.43;;;8.90;99.90;;;;;;12785983;23;20662;-83
2023/05/06 19:23:02;;;;;;;11.37;7.33;;;9.10;99.90;;;;;;12785957;23;20212;-83
2023/05/06 19:28:05;;;;;;;16.30;10.00;;;9.20;99.90;;;;;;12789566;23;20171;-83
2023/05/06 19:33:08;;;;;;;10.00;8.23;;;9.00;99.90;;;;;;12789797;23;20317;-83
2023/05/06 19:38:11;;;;;;;12.27;8.90;;;8.90;99.90;;;;;;12787230;23;20188;-84
2023/05/06 19:43:13;;;;;;;12.17;8.60;;;9.10;99.90;;;;;;12737790;23;20581;-84
2023/05/06 19:48:18;;;;;;;16.70;8.27;;;8.90;99.90;;;;;;12764570;23;20211;-83
2023/05/06 19:53:22;;;;;;;10.47;7.87;;;8.80;99.90;;;;;;12763663;23;20203;-84
2023/05/06 19:58:25;;;;;;;10.93;8.03;;;8.80;99.90;;;;;;12762529;23;20176;-84
2023/05/06 20:03:29;;;;;;;13.13;8.00;;;8.70;99.90;;;;;;12761926;23;20172;-83
2023/05/06 20:08:31;;;;;;;13.00;8.63;;;8.90;99.90;;;;;;12789364;23;20171;-84
2023/05/06 20:13:34;;;;;;;10.57;8.37;;;9.10;99.90;;;;;;12790634;23;20207;-83
2023/05/06 20:18:39;;;;;;;11.67;9.77;;;9.00;99.90;;;;;;12788879;23;20179;-82
2023/05/06 20:23:41;;;;;;;19.10;9.67;;;8.90;99.90;;;;;;12788689;23;20211;-83
2023/05/06 20:28:46;;;;;;;14.93;9.23;;;9.00;99.90;;;;;;12789908;23;20210;-84
2023/05/06 20:33:49;;;;;;;12.00;8.50;;;9.00;99.90;;;;;;12789207;23;20665;-84
2023/05/06 20:38:51;;;;;;;9.97;7.30;;;8.90;99.90;;;;;;12788870;23;20184;-84
2023/05/06 20:43:56;;;;;;;10.93;7.70;;;9.00;99.90;;;;;;12786743;23;20172;-84
2023/05/06 20:48:59;;;;;;;11.47;8.30;;;9.00;99.90;;;;;;12787499;23;20631;-84
2023/05/06 20:54:02;;;;;;;9.70;7.37;;;9.10;99.90;;;;;;12788765;23;20187;-85
2023/05/06 20:59:05;;;;;;;10.63;7.37;;;9.20;99.90;;;;;;12808259;23;20168;-85
2023/05/06 21:04:07;;;;;;;13.83;8.17;;;9.20;99.90;;;;;;12762566;23;20757;-84
2023/05/06 21:09:11;;;;;;;7.33;6.63;;;9.30;99.90;;;;;;12762109;23;20188;-85
2023/05/06 21:14:13;;;;;;;10.63;7.30;;;9.40;99.90;;;;;;12790353;23;20585;-83
2023/05/06 21:19:16;;;;;;;9.77;7.23;;;9.30;99.90;;;;;;12790846;23;20168;-84
2023/05/06 21:24:18;;;;;;;11.07;7.90;;;9.40;99.90;;;;;;12790244;23;20195;-83
2023/05/06 21:29:21;;;;;;;11.03;7.37;;;9.30;99.90;;;;;;12808740;23;20168;-83
2023/05/06 21:34:25;;;;;;;8.87;7.53;;;9.20;99.90;;;;;;12790701;23;20519;-83
2023/05/06 21:39:27;;;;;;;8.53;6.57;;;9.20;99.90;;;;;;12790679;23;20180;-83
2023/05/06 21:44:30;;;;;;;9.97;6.93;;;9.10;99.90;;;;;;12764552;23;20183;-83
2023/05/06 21:49:32;;;;;;;7.30;5.60;;;9.20;99.90;;;;;;12810578;23;20610;-83
2023/05/06 21:54:35;;;;;;;9.27;6.03;;;9.30;99.90;;;;;;12765820;23;20203;-83
2023/05/06 21:59:37;;;;;;;12.07;7.40;;;9.30;99.90;;;;;;12765551;23;20184;-83
2023/05/06 22:04:40;;;;;;;9.43;6.10;;;9.20;99.90;;;;;;12791939;23;20171;-83
2023/05/06 22:09:43;;;;;;;13.33;7.20;;;9.30;99.90;;;;;;12765220;23;20521;-83
2023/05/06 22:14:46;;;;;;;10.40;6.33;;;9.50;99.90;;;;;;12765679;23;20180;-83
2023/05/06 22:19:49;;;;;;;8.20;5.10;;;9.40;99.90;;;;;;12791436;23;20195;-83
2023/05/06 22:24:52;;;;;;;10.00;6.07;;;9.30;99.90;;;;;;12791148;23;20525;-83
2023/05/06 22:29:55;;;;;;;9.03;6.23;;;9.60;99.90;;;;;;12791719;23;20191;-83
2023/05/06 22:34:57;;;;;;;9.60;6.57;;;9.50;99.90;;;;;;12792603;23;20250;-83
2023/05/06 22:40:00;;;;;;;7.50;5.43;;;9.30;99.90;;;;;;12765910;23;20581;-83
2023/05/06 22:45:04;;;;;;;9.23;5.20;;;9.40;99.90;;;;;;12767358;23;20164;-83
2023/05/06 22:50:07;;;;;;;9.60;5.63;;;9.40;99.90;;;;;;12764874;23;20187;-83
2023/05/06 22:55:10;;;;;;;6.27;4.80;;;9.60;99.90;;;;;;12765093;23;20299;-83
2023/05/06 23:00:13;;;;;;;8.67;6.30;;;9.40;99.90;;;;;;12794456;23;20234;-83
2023/05/06 23:05:16;;;;;;;8.70;6.37;;;9.30;99.90;;;;;;12794706;23;20180;-83
2023/05/06 23:10:18;;;;;;;7.87;6.00;;;9.10;99.90;;;;;;12793544;23;20581;-83
2023/05/06 23:15:21;;;;;;;7.70;5.20;;;8.90;99.90;;;;;;12794854;23;20946;-83
2023/05/06 23:20:24;;;;;;;10.03;5.67;;;8.90;99.90;;;;;;12793378;23;20211;-85
2023/05/06 23:25:27;;;;;;;11.20;5.80;;;8.70;99.90;;;;;;12795298;23;20179;-84
2023/05/06 23:30:30;;;;;;;6.20;4.87;;;8.60;99.90;;;;;;12795539;23;20188;-84
2023/05/06 23:35:32;;;;;;;8.97;5.73;;;8.70;99.90;;;;;;12795175;23;20223;-84
2023/05/06 23:40:35;;;;;;;7.80;4.87;;;8.80;99.90;;;;;;12794061;23;20575;-84
2023/05/06 23:45:37;;;;;;;8.57;5.40;;;8.70;99.90;;;;;;12795785;23;20164;-84
2023/05/06 23:50:40;;;;;;;6.50;5.10;;;8.80;99.90;;;;;;12795489;23;20183;-84
2023/05/06 23:55:43;;;;;;;6.73;4.90;;;8.80;99.90;;;;;;12768197;23;20180;-84
